Time;durP1;ratioP1;P1;durP2;ratioP2;P2;SDS_P1;SDS_P2;PMS_P1;PMS_P2;Temp;Humidity;BMP_temperature;BMP_pressure;BME280_temperature;BME280_humidity;BME280_pressure;Samples;Min_cycle;Max_cycle;Signal;HPM_P1;HPM_P2
2023/05/20 00:00:06;;;;;;;87.45;51.53;;;27.80;99.90;;;;;;5043067;28;20021;-70
2023/05/20 00:02:33;;;;;;;92.15;57.75;;;27.90;99.90;;;;;;5041287;28;20023;-71
2023/05/20 00:05:00;;;;;;;89.45;56.45;;;27.70;99.90;;;;;;5041777;28;20024;-70
2023/05/20 00:07:26;;;;;;;81.93;46.10;;;27.70;99.90;;;;;;5041385;28;20486;-71
2023/05/20 00:09:53;;;;;;;160.60;106.28;;;27.70;99.90;;;;;;5043978;28;20240;-70
2023/05/20 00:12:19;;;;;;;100.72;64.82;;;27.90;99.90;;;;;;5042219;28;20052;-70
2023/05/20 00:14:46;;;;;;;97.72;67.10;;;27.90;99.90;;;;;;5040038;28;20029;-69
2023/05/20 00:17:12;;;;;;;76.35;51.45;;;28.00;99.90;;;;;;5033105;28;20041;-70
2023/05/20 00:19:39;;;;;;;175.35;113.68;;;28.10;99.90;;;;;;5033216;28;20088;-68
2023/05/20 00:22:06;;;;;;;80.22;45.10;;;28.30;99.90;;;;;;5033119;28;20024;-67
2023/05/20 00:24:32;;;;;;;56.58;43.58;;;28.30;99.90;;;;;;5033151;28;20053;-69
2023/05/20 00:26:59;;;;;;;69.70;47.05;;;28.30;99.90;;;;;;5033141;28;20493;-68
2023/05/20 00:29:27;;;;;;;62.03;42.88;;;28.30;99.90;;;;;;5032896;28;20033;-69
2023/05/20 00:31:53;;;;;;;61.80;44.20;;;28.30;99.90;;;;;;5033144;28;20025;-69
2023/05/20 00:34:20;;;;;;;63.00;44.33;;;28.30;99.90;;;;;;5033161;28;20029;-72
2023/05/20 00:36:47;;;;;;;69.97;44.83;;;28.30;99.90;;;;;;5032824;28;20474;-72
2023/05/20 00:39:13;;;;;;;59.28;45.50;;;28.20;99.90;;;;;;5035223;28;20104;-68
2023/05/20 00:41:40;;;;;;;84.72;62.72;;;28.30;99.90;;;;;;5037328;28;20018;-68
2023/05/20 00:44:06;;;;;;;78.18;57.42;;;28.30;99.90;;;;;;5037929;28;20120;-68
2023/05/20 00:46:33;;;;;;;73.38;50.40;;;28.40;99.90;;;;;;5046755;28;20044;-71
2023/05/20 00:49:00;;;;;;;72.85;54.58;;;28.40;99.90;;;;;;5037041;28;20140;-70
2023/05/20 00:51:27;;;;;;;70.25;53.78;;;28.30;99.90;;;;;;5036669;28;20022;-68
2023/05/20 00:53:55;;;;;;;61.05;47.72;;;28.60;99.90;;;;;;5037032;28;20493;-67
2023/05/20 00:56:22;;;;;;;62.53;46.10;;;28.50;99.90;;;;;;5037307;28;20032;-69
2023/05/20 00:58:50;;;;;;;58.53;44.10;;;28.60;99.90;;;;;;5037249;28;20021;-69
2023/05/20 01:01:16;;;;;;;93.95;66.10;;;28.60;99.90;;;;;;5036718;28;20021;-69
2023/05/20 01:03:43;;;;;;;74.82;54.95;;;28.60;99.90;;;;;;5036780;28;20071;-70
2023/05/20 01:06:09;;;;;;;67.85;48.58;;;28.70;99.90;;;;;;5041433;28;20024;-68
2023/05/20 01:08:36;;;;;;;69.05;50.58;;;28.50;99.90;;;;;;5046199;28;20060;-70
2023/05/20 01:11:28;;;;;;;67.22;49.42;;;28.60;99.90;;;;;;5044646;28;20470;-71
2023/05/20 01:14:00;;;;;;;71.68;49.25;;;28.50;99.90;;;;;;5037911;28;20124;-69
2023/05/20 01:16:29;;;;;;;98.60;65.43;;;28.50;99.90;;;;;;5045068;28;20030;-68
2023/05/20 01:18:57;;;;;;;70.93;53.38;;;28.60;99.90;;;;;;5037401;28;20049;-70
2023/05/20 01:21:24;;;;;;;68.88;49.53;;;28.70;99.90;;;;;;5036577;28;20014;-68
2023/05/20 01:23:50;;;;;;;68.35;47.92;;;28.60;99.90;;;;;;5036588;28;20021;-69
2023/05/20 01:26:17;;;;;;;66.38;48.78;;;28.50;99.90;;;;;;5036303;28;20544;-69
2023/05/20 01:28:44;;;;;;;68.90;46.45;;;28.50;99.90;;;;;;5036398;28;20104;-70
2023/05/20 01:31:18;;;;;;;70.10;49.22;;;28.60;99.90;;;;;;5036327;28;20478;-70
2023/05/20 01:33:47;;;;;;;71.25;49.97;;;28.70;99.90;;;;;;5036324;28;20140;-69
2023/05/20 01:36:14;;;;;;;64.75;48.22;;;28.70;99.90;;;;;;5036230;28;20099;-70
2023/05/20 01:38:41;;;;;;;70.95;51.72;;;28.70;99.90;;;;;;5043269;28;20143;-74
2023/05/20 01:41:09;;;;;;;73.20;49.40;;;28.60;99.90;;;;;;5045238;28;20663;-71
2023/05/20 01:43:36;;;;;;;66.68;50.03;;;28.60;99.90;;;;;;5043076;28;20017;-71
2023/05/20 01:46:06;;;;;;;64.78;47.88;;;28.70;99.90;;;;;;5044460;28;20040;-72
2023/05/20 01:48:33;;;;;;;68.40;50.38;;;28.70;99.90;;;;;;5045426;28;20053;-70
2023/05/20 01:50:59;;;;;;;65.78;48.88;;;28.70;99.90;;;;;;5043154;28;20014;-74
2023/05/20 01:53:26;;;;;;;63.00;47.63;;;28.90;99.90;;;;;;5044508;28;20017;-70
2023/05/20 01:55:53;;;;;;;66.95;48.33;;;28.80;99.90;;;;;;5045421;28;20033;-70
2023/05/20 01:58:19;;;;;;;66.10;48.58;;;28.90;99.90;;;;;;5044097;28;20021;-69
2023/05/20 02:00:46;;;;;;;64.43;48.72;;;28.90;99.90;;;;;;5044679;28;20021;-69
2023/05/20 02:03:12;;;;;;;70.35;51.67;;;29.10;99.90;;;;;;5045309;28;20478;-70
2023/05/20 02:05:39;;;;;;;65.32;46.80;;;29.10;99.90;;;;;;5043092;28;20025;-70
2023/05/20 02:08:05;;;;;;;62.72;46.72;;;29.20;99.90;;;;;;5044033;28;20210;-69
2023/05/20 02:10:32;;;;;;;56.50;43.47;;;29.30;99.90;;;;;;5044943;28;20032;-70
2023/05/20 02:12:58;;;;;;;64.35;47.15;;;29.20;99.90;;;;;;5042832;28;20021;-70
2023/05/20 02:15:25;;;;;;;57.80;45.80;;;29.20;99.90;;;;;;5042376;28;20097;-68
2023/05/20 02:17:51;;;;;;;320.63;240.52;;;29.30;99.90;;;;;;5044309;28;20042;-68
2023/05/20 02:20:18;;;;;;;182.38;128.13;;;29.40;99.90;;;;;;5042794;28;20459;-69
2023/05/20 02:22:45;;;;;;;162.85;109.38;;;29.60;99.90;;;;;;5044106;28;20047;-69
2023/05/20 02:25:11;;;;;;;165.20;118.53;;;29.60;99.90;;;;;;5044493;28;20018;-67
2023/05/20 02:27:39;;;;;;;122.75;84.97;;;29.80;99.90;;;;;;5042817;28;20482;-66
2023/05/20 02:30:07;;;;;;;61.58;47.67;;;30.00;99.90;;;;;;5043899;28;20104;-65
2023/05/20 02:32:33;;;;;;;57.90;42.47;;;29.90;99.90;;;;;;5043935;28;20072;-67
2023/05/20 02:35:00;;;;;;;71.07;49.50;;;30.10;99.90;;;;;;5042703;28;20017;-63
2023/05/20 02:37:27;;;;;;;73.53;51.00;;;30.10;99.90;;;;;;5043085;28;20053;-65
2023/05/20 02:39:55;;;;;;;65.22;45.72;;;30.10;99.90;;;;;;5044372;28;20025;-66
2023/05/20 02:42:21;;;;;;;57.47;44.08;;;30.10;99.90;;;;;;5044446;28;20044;-65
2023/05/20 02:44:48;;;;;;;48.08;38.63;;;30.20;99.90;;;;;;5043040;28;20021;-65
2023/05/20 02:47:14;;;;;;;46.50;36.70;;;30.20;99.90;;;;;;5043985;28;20382;-65
2023/05/20 02:49:41;;;;;;;53.50;39.28;;;30.10;99.90;;;;;;5042268;28;20051;-65
2023/05/20 02:52:07;;;;;;;48.05;35.70;;;30.30;99.90;;;;;;5042926;28;20498;-66
2023/05/20 02:54:34;;;;;;;49.58;37.00;;;30.20;99.90;;;;;;5043835;28;20060;-66
2023/05/20 02:57:01;;;;;;;51.33;34.33;;;30.30;99.90;;;;;;5042291;28;20022;-70
2023/05/20 02:59:27;;;;;;;50.03;37.75;;;30.40;99.90;;;;;;5043486;28;20029;-66
2023/05/20 03:01:54;;;;;;;45.40;35.75;;;30.30;99.90;;;;;;5036956;28;20458;-65
2023/05/20 03:04:20;;;;;;;49.30;36.22;;;30.40;99.90;;;;;;5046916;28;20032;-67
2023/05/20 03:06:47;;;;;;;47.38;35.45;;;30.50;99.90;;;;;;5049058;28;20017;-68
2023/05/20 03:09:13;;;;;;;46.67;34.75;;;30.50;99.90;;;;;;5048904;28;20024;-67
2023/05/20 03:11:40;;;;;;;45.08;34.60;;;30.50;99.90;;;;;;5048427;28;20473;-68
2023/05/20 03:14:06;;;;;;;43.33;32.83;;;30.50;99.90;;;;;;5049102;28;20017;-73
2023/05/20 03:16:34;;;;;;;41.42;32.42;;;30.60;99.90;;;;;;5048936;28;20033;-73
2023/05/20 03:19:01;;;;;;;41.88;31.08;;;30.60;99.90;;;;;;5048385;28;20480;-66
2023/05/20 03:21:28;;;;;;;39.75;31.05;;;30.40;99.90;;;;;;5048994;28;20374;-68
2023/05/20 03:23:54;;;;;;;47.15;32.90;;;30.50;99.90;;;;;;5049753;28;20402;-68
2023/05/20 03:26:22;;;;;;;42.85;31.27;;;30.70;99.90;;;;;;5048447;28;20052;-67
2023/05/20 03:28:48;;;;;;;42.15;33.92;;;30.90;99.90;;;;;;5048815;28;20025;-67
2023/05/20 03:31:15;;;;;;;40.40;31.75;;;30.90;99.90;;;;;;5048574;28;20062;-67
2023/05/20 03:33:41;;;;;;;39.40;30.92;;;30.90;99.90;;;;;;5048369;28;20025;-67
2023/05/20 03:36:08;;;;;;;44.38;32.85;;;30.90;99.90;;;;;;5048474;28;20021;-68
2023/05/20 03:38:34;;;;;;;39.67;32.20;;;31.00;99.90;;;;;;5048516;28;20017;-69
2023/05/20 03:41:01;;;;;;;46.75;31.67;;;31.00;99.90;;;;;;5048016;28;20017;-69
2023/05/20 03:43:27;;;;;;;40.80;33.30;;;30.90;99.90;;;;;;5048453;28;20414;-68
2023/05/20 03:45:54;;;;;;;39.58;31.65;;;31.10;99.90;;;;;;5048242;28;20106;-67
2023/05/20 03:48:20;;;;;;;40.38;31.20;;;31.10;99.90;;;;;;5039187;28;20025;-68
2023/05/20 03:50:48;;;;;;;39.42;30.92;;;31.20;99.90;;;;;;5042818;28;20367;-68
2023/05/20 03:53:16;;;;;;;37.78;30.15;;;31.20;99.90;;;;;;5042761;28;20482;-68
2023/05/20 03:55:42;;;;;;;35.80;29.20;;;31.30;99.90;;;;;;5040581;28;20055;-68
2023/05/20 03:58:09;;;;;;;36.72;29.55;;;31.40;99.90;;;;;;5038957;28;20032;-68
2023/05/20 04:00:35;;;;;;;37.55;30.15;;;31.40;99.90;;;;;;5038981;28;20382;-68
2023/05/20 04:03:02;;;;;;;34.17;27.75;;;31.40;99.90;;;;;;5038922;28;20048;-69
2023/05/20 04:05:28;;;;;;;34.10;26.00;;;31.40;99.90;;;;;;5038799;28;20017;-67
2023/05/20 04:07:56;;;;;;;33.72;26.60;;;31.50;99.90;;;;;;5039134;28;20484;-69
2023/05/20 04:10:22;;;;;;;36.95;27.20;;;31.50;99.90;;;;;;5038906;28;20544;-67
2023/05/20 04:12:49;;;;;;;31.33;25.15;;;31.60;99.90;;;;;;5038445;28;20028;-67
2023/05/20 04:15:16;;;;;;;34.22;26.50;;;31.50;99.90;;;;;;5038621;28;20021;-67
2023/05/20 04:17:43;;;;;;;35.80;26.67;;;31.50;99.90;;;;;;5038506;28;20090;-68
2023/05/20 04:20:10;;;;;;;31.45;26.33;;;31.50;99.90;;;;;;5038357;28;20022;-67
2023/05/20 04:22:38;;;;;;;31.90;25.98;;;31.50;99.90;;;;;;5038691;28;20104;-65
2023/05/20 04:25:05;;;;;;;35.50;26.65;;;31.50;99.90;;;;;;5038052;28;20500;-66
2023/05/20 04:27:33;;;;;;;32.45;25.50;;;31.60;99.90;;;;;;5038265;28;20052;-68
2023/05/20 04:30:01;;;;;;;34.50;24.25;;;31.70;99.90;;;;;;5038818;28;20038;-68
2023/05/20 04:32:27;;;;;;;30.65;24.80;;;31.70;99.90;;;;;;5037995;28;20025;-68
2023/05/20 04:34:54;;;;;;;31.02;25.45;;;31.70;99.90;;;;;;5038201;28;20059;-68
2023/05/20 04:37:21;;;;;;;32.50;25.17;;;31.80;99.90;;;;;;5038597;28;20471;-68
2023/05/20 04:39:48;;;;;;;49.55;26.67;;;31.90;99.90;;;;;;5037716;28;20018;-68
2023/05/20 04:42:17;;;;;;;34.58;26.15;;;31.90;99.90;;;;;;5038261;28;20021;-67
2023/05/20 04:44:47;;;;;;;33.00;23.92;;;31.80;99.90;;;;;;5037920;28;20274;-67
2023/05/20 04:47:16;;;;;;;34.70;25.42;;;31.80;99.90;;;;;;5052649;23;20221;-69
2023/05/20 04:49:42;;;;;;;32.25;24.20;;;31.80;99.90;;;;;;5022074;28;20360;-71
2023/05/20 04:52:09;;;;;;;29.50;23.92;;;31.90;99.90;;;;;;5020716;28;20383;-69
2023/05/20 04:54:36;;;;;;;31.05;24.13;;;32.00;99.90;;;;;;5023020;28;20071;-71
2023/05/20 04:57:02;;;;;;;33.25;24.50;;;32.10;99.90;;;;;;5021897;28;20073;-72
2023/05/20 04:59:29;;;;;;;47.80;31.65;;;32.10;99.90;;;;;;5023177;28;20017;-73
2023/05/20 05:01:55;;;;;;;32.00;25.00;;;32.10;99.90;;;;;;5029025;28;20029;-73
2023/05/20 05:04:22;;;;;;;34.08;23.83;;;32.20;99.90;;;;;;5028674;28;20029;-72
2023/05/20 05:06:50;;;;;;;30.40;24.52;;;32.30;99.90;;;;;;5030380;28;20171;-73
2023/05/20 05:09:16;;;;;;;30.00;24.33;;;32.30;99.90;;;;;;5029413;28;20071;-73
2023/05/20 05:11:43;;;;;;;31.05;24.90;;;32.30;99.90;;;;;;5029972;28;20017;-74
2023/05/20 05:14:09;;;;;;;31.83;24.77;;;32.40;99.90;;;;;;5030501;28;20029;-72
2023/05/20 05:16:36;;;;;;;33.10;25.58;;;32.40;99.90;;;;;;5029585;28;20069;-72
2023/05/20 05:19:02;;;;;;;28.02;24.17;;;32.50;99.90;;;;;;5030023;28;20013;-72
2023/05/20 05:21:29;;;;;;;31.08;24.25;;;32.60;99.90;;;;;;5030040;28;20459;-71
2023/05/20 05:23:56;;;;;;;31.08;23.95;;;32.70;99.90;;;;;;5029769;28;20025;-71
2023/05/20 05:26:23;;;;;;;26.80;22.00;;;32.60;99.90;;;;;;5032034;28;20049;-71
2023/05/20 05:28:49;;;;;;;30.75;25.20;;;32.50;99.90;;;;;;5033653;28;20025;-72
2023/05/20 05:31:16;;;;;;;32.33;25.48;;;32.60;99.90;;;;;;5033297;28;20340;-73
2023/05/20 05:33:42;;;;;;;36.35;24.13;;;32.60;99.90;;;;;;5033179;28;20072;-71
2023/05/20 05:36:09;;;;;;;32.47;23.58;;;32.50;99.90;;;;;;5031166;28;20018;-71
2023/05/20 05:38:36;;;;;;;31.35;22.70;;;32.50;99.90;;;;;;5023469;28;20472;-71
2023/05/20 05:41:02;;;;;;;27.70;20.60;;;32.60;99.90;;;;;;5025835;28;20018;-71
2023/05/20 05:43:28;;;;;;;24.15;19.75;;;32.70;99.90;;;;;;5025511;28;20092;-73
2023/05/20 05:45:55;;;;;;;23.90;20.83;;;32.70;99.90;;;;;;5024363;28;20022;-74
2023/05/20 05:48:22;;;;;;;30.33;23.63;;;32.70;99.90;;;;;;5025908;28;20395;-72
2023/05/20 05:50:48;;;;;;;28.83;22.65;;;32.70;99.90;;;;;;5031852;28;20029;-70
2023/05/20 05:53:15;;;;;;;26.33;22.48;;;32.80;99.90;;;;;;5035441;28;20048;-71
2023/05/20 05:55:41;;;;;;;30.70;22.40;;;32.90;99.90;;;;;;5035824;28;20053;-71
2023/05/20 05:58:08;;;;;;;29.05;23.08;;;32.90;99.90;;;;;;5035409;28;20021;-71
2023/05/20 06:00:34;;;;;;;27.15;22.77;;;32.80;99.90;;;;;;5035343;28;20028;-70
2023/05/20 06:03:01;;;;;;;25.48;20.77;;;32.70;99.90;;;;;;5029675;28;20072;-71
2023/05/20 06:05:28;;;;;;;26.52;21.20;;;32.70;99.90;;;;;;5052735;23;20135;-71
2023/05/20 06:07:54;;;;;;;26.30;21.67;;;32.80;99.90;;;;;;5034730;28;20033;-71
2023/05/20 06:10:21;;;;;;;26.88;20.85;;;32.90;99.90;;;;;;5035019;28;20032;-71
2023/05/20 06:12:48;;;;;;;24.73;20.88;;;32.90;99.90;;;;;;5034486;28;20025;-71
2023/05/20 06:15:14;;;;;;;35.80;24.63;;;33.00;99.90;;;;;;5034387;28;20025;-76
2023/05/20 06:17:41;;;;;;;25.63;20.52;;;33.00;99.90;;;;;;5032347;28;20386;-74
2023/05/20 06:20:08;;;;;;;29.70;21.50;;;33.10;99.90;;;;;;5022740;28;20024;-77
2023/05/20 06:22:34;;;;;;;31.00;24.65;;;33.20;99.90;;;;;;5034522;28;20060;-76
2023/05/20 06:25:01;;;;;;;27.63;19.65;;;33.20;99.90;;;;;;5014337;28;20467;-70
2023/05/20 06:27:28;;;;;;;22.65;17.08;;;33.30;99.90;;;;;;5019121;28;20112;-71
2023/05/20 06:29:54;;;;;;;21.35;16.85;;;33.30;99.90;;;;;;5034848;28;20026;-71
2023/05/20 06:32:21;;;;;;;23.27;17.33;;;33.40;99.90;;;;;;5035194;28;20036;-70
2023/05/20 06:34:47;;;;;;;18.00;16.10;;;33.40;99.90;;;;;;5034726;28;20059;-70
2023/05/20 06:37:14;;;;;;;21.88;17.80;;;33.40;99.90;;;;;;5033668;28;20022;-71
2023/05/20 06:39:40;;;;;;;23.50;19.77;;;33.50;99.90;;;;;;5033778;28;20399;-71
2023/05/20 06:42:07;;;;;;;26.15;19.10;;;33.60;99.90;;;;;;5033697;28;20622;-69
2023/05/20 06:44:33;;;;;;;24.05;18.70;;;33.60;99.90;;;;;;5033504;28;20029;-70
2023/05/20 06:47:00;;;;;;;22.85;18.42;;;33.60;99.90;;;;;;5033728;28;20025;-69
2023/05/20 06:49:27;;;;;;;23.23;17.38;;;33.70;99.90;;;;;;5033540;28;20041;-70
2023/05/20 06:51:53;;;;;;;22.05;17.35;;;33.70;99.90;;;;;;5033321;28;20112;-69
2023/05/20 06:54:20;;;;;;;23.55;18.98;;;33.70;99.90;;;;;;5033598;28;20026;-70
2023/05/20 06:56:47;;;;;;;28.50;20.27;;;33.70;99.90;;;;;;5033301;28;20390;-70
2023/05/20 06:59:13;;;;;;;32.92;23.02;;;33.70;99.90;;;;;;5033382;28;20104;-67
2023/05/20 07:01:40;;;;;;;28.48;22.02;;;33.80;99.90;;;;;;5033402;28;20117;-69
2023/05/20 07:04:06;;;;;;;29.92;20.15;;;33.80;99.90;;;;;;5033212;28;20114;-68
2023/05/20 07:06:33;;;;;;;23.30;19.45;;;33.80;99.90;;;;;;5033310;28;20032;-68
2023/05/20 07:09:00;;;;;;;25.00;18.88;;;33.80;99.90;;;;;;5033247;28;20052;-68
2023/05/20 07:11:26;;;;;;;27.70;19.40;;;33.60;99.90;;;;;;5033009;28;20030;-69
2023/05/20 07:13:53;;;;;;;29.83;21.67;;;33.60;99.90;;;;;;5033151;28;20425;-69
2023/05/20 07:16:19;;;;;;;25.45;18.63;;;33.70;99.90;;;;;;5032801;28;20414;-69
2023/05/20 07:18:46;;;;;;;22.15;17.80;;;33.80;99.90;;;;;;5032462;28;20470;-70
2023/05/20 07:21:12;;;;;;;24.60;20.40;;;33.80;99.90;;;;;;5030031;28;20101;-71
2023/05/20 07:23:39;;;;;;;23.70;18.88;;;33.90;99.90;;;;;;5032573;28;20026;-69
2023/05/20 07:26:06;;;;;;;24.48;19.90;;;33.90;99.90;;;;;;5032566;28;20037;-69
2023/05/20 07:28:33;;;;;;;28.27;21.58;;;34.00;99.90;;;;;;5030095;28;20018;-70
2023/05/20 07:30:59;;;;;;;25.10;20.52;;;34.00;99.90;;;;;;5032387;28;20033;-72
2023/05/20 07:33:26;;;;;;;24.27;19.25;;;34.00;99.90;;;;;;5032209;28;20467;-70
2023/05/20 07:35:53;;;;;;;23.73;19.13;;;33.90;99.90;;;;;;5029845;28;20034;-70
2023/05/20 07:38:20;;;;;;;26.85;20.77;;;33.90;99.90;;;;;;5032694;28;20029;-70
2023/05/20 07:40:46;;;;;;;29.35;21.23;;;34.00;99.90;;;;;;5033518;28;20080;-69
2023/05/20 07:43:13;;;;;;;29.23;20.65;;;34.00;99.90;;;;;;5033736;28;20021;-69
2023/05/20 07:45:40;;;;;;;23.38;20.10;;;34.10;99.90;;;;;;5033628;28;20075;-70
2023/05/20 07:48:07;;;;;;;38.47;20.52;;;34.10;99.90;;;;;;5032813;28;20025;-69
2023/05/20 07:50:34;;;;;;;25.45;20.67;;;34.10;99.90;;;;;;5032588;28;20437;-68
2023/05/20 07:53:00;;;;;;;29.40;20.80;;;34.20;99.90;;;;;;5032354;28;20021;-68
2023/05/20 07:55:27;;;;;;;25.88;19.52;;;34.20;99.90;;;;;;5032103;28;20473;-68
2023/05/20 07:57:53;;;;;;;26.55;19.75;;;34.20;99.90;;;;;;5032261;28;20029;-68
2023/05/20 08:00:20;;;;;;;26.63;20.90;;;34.30;99.90;;;;;;5032287;28;20045;-69
2023/05/20 08:02:50;;;;;;;23.05;17.75;;;34.30;99.90;;;;;;5031977;28;20032;-68
2023/05/20 08:05:16;;;;;;;25.73;17.25;;;34.40;99.90;;;;;;5031926;28;20041;-68
2023/05/20 08:07:43;;;;;;;21.65;18.05;;;34.40;99.90;;;;;;5031977;28;20071;-68
2023/05/20 08:10:10;;;;;;;23.33;18.67;;;34.30;99.90;;;;;;5033193;28;20084;-67
2023/05/20 08:12:37;;;;;;;23.75;19.10;;;34.30;99.90;;;;;;5030051;28;20053;-67
2023/05/20 08:15:04;;;;;;;20.70;16.50;;;34.40;99.90;;;;;;5032889;28;20021;-67
2023/05/20 08:17:31;;;;;;;19.58;15.40;;;34.40;99.90;;;;;;5032705;28;20049;-67
2023/05/20 08:19:58;;;;;;;18.27;15.43;;;34.30;99.90;;;;;;5030195;28;20017;-67
2023/05/20 08:22:24;;;;;;;19.38;16.73;;;34.30;99.90;;;;;;5033192;28;20021;-68
2023/05/20 08:24:51;;;;;;;25.85;16.77;;;34.30;99.90;;;;;;5033022;28;20018;-67
2023/05/20 08:27:17;;;;;;;24.70;20.33;;;34.30;99.90;;;;;;5029974;28;20021;-68
2023/05/20 08:29:44;;;;;;;26.85;18.77;;;34.30;99.90;;;;;;5032823;28;20462;-67
2023/05/20 08:32:11;;;;;;;24.83;18.55;;;34.30;99.90;;;;;;5032745;28;20076;-68
2023/05/20 08:34:38;;;;;;;21.75;17.15;;;34.30;99.90;;;;;;5029877;28;20028;-68
2023/05/20 08:37:05;;;;;;;21.67;17.33;;;34.30;99.90;;;;;;5032839;28;20025;-66
2023/05/20 08:39:31;;;;;;;24.13;16.75;;;34.30;99.90;;;;;;5032455;28;20033;-67
2023/05/20 08:41:58;;;;;;;31.42;23.77;;;34.30;99.90;;;;;;5029986;28;20386;-68
2023/05/20 08:44:27;;;;;;;48.75;31.75;;;34.40;99.90;;;;;;5032876;28;20033;-68
2023/05/20 08:46:53;;;;;;;84.65;54.03;;;34.30;99.90;;;;;;5032445;28;20053;-68
2023/05/20 08:49:20;;;;;;;48.40;31.17;;;34.30;99.90;;;;;;5032360;28;20462;-68
2023/05/20 08:51:48;;;;;;;57.58;36.22;;;34.20;99.90;;;;;;5032408;28;20026;-68
2023/05/20 08:54:15;;;;;;;27.35;22.52;;;34.30;99.90;;;;;;5032306;28;20029;-68
2023/05/20 08:56:43;;;;;;;26.02;19.33;;;34.20;99.90;;;;;;5032184;28;20028;-69
2023/05/20 08:59:10;;;;;;;79.80;69.85;;;34.20;99.90;;;;;;5032494;28;20017;-69
2023/05/20 09:01:43;;;;;;;62.88;47.17;;;34.20;99.90;;;;;;5034753;28;20017;-70
2023/05/20 09:04:11;;;;;;;79.15;59.63;;;34.20;99.90;;;;;;5036535;28;20057;-70
2023/05/20 09:06:43;;;;;;;201.50;157.32;;;34.20;99.90;;;;;;5036371;28;20148;-70
2023/05/20 09:09:17;;;;;;;47.15;32.15;;;34.20;99.90;;;;;;5036278;28;20021;-70
2023/05/20 09:11:43;;;;;;;56.88;36.15;;;34.20;99.90;;;;;;5036364;28;20104;-69
2023/05/20 09:14:10;;;;;;;199.30;145.35;;;34.20;99.90;;;;;;5036333;28;20064;-70
2023/05/20 09:16:38;;;;;;;53.35;39.50;;;34.20;99.90;;;;;;5036078;28;20026;-70
2023/05/20 09:19:06;;;;;;;44.92;31.77;;;34.20;99.90;;;;;;5036238;28;20036;-71
2023/05/20 09:21:34;;;;;;;49.92;40.58;;;34.20;99.90;;;;;;5036178;28;20029;-69
2023/05/20 09:24:01;;;;;;;35.67;26.40;;;34.20;99.90;;;;;;5036072;28;20030;-68
2023/05/20 09:26:31;;;;;;;35.70;24.42;;;34.20;99.90;;;;;;5035925;28;20112;-68
2023/05/20 09:28:58;;;;;;;42.55;30.88;;;34.20;99.90;;;;;;5036018;28;20057;-69
2023/05/20 09:31:28;;;;;;;88.13;66.40;;;34.10;99.90;;;;;;5035850;28;20551;-68
2023/05/20 09:33:55;;;;;;;69.63;51.65;;;34.10;99.90;;;;;;5035906;28;20037;-68
2023/05/20 09:36:23;;;;;;;40.75;30.55;;;34.10;99.90;;;;;;5035814;28;20113;-69
2023/05/20 09:38:53;;;;;;;34.20;24.05;;;34.10;99.90;;;;;;5035594;28;20040;-70
2023/05/20 09:41:22;;;;;;;32.33;23.70;;;34.10;99.90;;;;;;5035764;28;20100;-69
2023/05/20 09:43:51;;;;;;;33.35;24.23;;;34.10;99.90;;;;;;5035810;28;20363;-69
2023/05/20 09:46:19;;;;;;;33.75;27.20;;;34.10;99.90;;;;;;5035535;28;20029;-68
2023/05/20 09:48:45;;;;;;;51.78;27.45;;;34.10;99.90;;;;;;5035971;28;20033;-69
2023/05/20 09:51:13;;;;;;;57.65;40.97;;;34.20;99.90;;;;;;5035719;28;20021;-70
2023/05/20 09:53:40;;;;;;;87.60;64.78;;;34.20;99.90;;;;;;5035729;28;20034;-67
2023/05/20 09:56:07;;;;;;;123.28;92.82;;;34.20;99.90;;;;;;5035461;28;20036;-70
2023/05/20 09:58:35;;;;;;;38.65;30.85;;;34.10;99.90;;;;;;5035615;28;20486;-69
2023/05/20 10:01:01;;;;;;;66.32;47.25;;;34.10;99.90;;;;;;5035366;28;20080;-69
2023/05/20 10:03:28;;;;;;;55.90;41.55;;;34.00;99.90;;;;;;5035259;28;20036;-69
2023/05/20 10:06:07;;;;;;;63.35;46.80;;;34.00;99.90;;;;;;5035509;28;20051;-69
2023/05/20 10:08:37;;;;;;;37.47;28.77;;;34.00;99.90;;;;;;5035375;28;20105;-70
2023/05/20 10:11:11;;;;;;;38.28;27.75;;;34.00;99.90;;;;;;5034758;28;20057;-70
2023/05/20 10:14:06;;;;;;;51.83;34.45;;;33.90;99.90;;;;;;5013613;28;20423;-69
2023/05/20 10:16:43;;;;;;;37.97;28.63;;;33.80;99.90;;;;;;5031881;28;20029;-70
2023/05/20 10:19:33;;;;;;;42.97;29.33;;;33.80;99.90;;;;;;5022363;28;20037;-70
2023/05/20 10:22:03;;;;;;;74.03;53.08;;;33.80;99.90;;;;;;5014833;28;20514;-70
2023/05/20 10:24:31;;;;;;;95.30;68.32;;;33.80;99.90;;;;;;5015303;28;20041;-70
2023/05/20 10:27:01;;;;;;;64.25;46.17;;;33.90;99.90;;;;;;5015307;28;20069;-69
2023/05/20 10:29:28;;;;;;;70.03;52.22;;;33.90;99.90;;;;;;5015210;28;20034;-69
2023/05/20 10:31:55;;;;;;;40.88;28.52;;;33.80;99.90;;;;;;5015191;28;20487;-69
2023/05/20 10:34:22;;;;;;;128.02;97.20;;;33.70;99.90;;;;;;5015089;28;20053;-75
2023/05/20 10:36:52;;;;;;;75.32;58.72;;;33.70;99.90;;;;;;5015252;28;20030;-75
2023/05/20 10:39:26;;;;;;;34.78;30.25;;;33.70;99.90;;;;;;5015116;28;20033;-75
2023/05/20 10:41:52;;;;;;;32.42;24.27;;;33.60;99.90;;;;;;5019895;28;20053;-74
2023/05/20 10:44:19;;;;;;;31.65;23.90;;;33.70;99.90;;;;;;5034960;28;20049;-75
2023/05/20 10:46:45;;;;;;;36.53;26.30;;;33.60;99.90;;;;;;5034832;28;20021;-75
2023/05/20 10:49:18;;;;;;;33.15;22.58;;;33.60;99.90;;;;;;5034614;28;20377;-74
2023/05/20 10:51:46;;;;;;;36.08;24.10;;;33.60;99.90;;;;;;5034722;28;20029;-74
2023/05/20 10:54:14;;;;;;;33.15;23.88;;;33.60;99.90;;;;;;5034660;28;20117;-76
2023/05/20 10:56:53;;;;;;;38.47;24.65;;;33.50;99.90;;;;;;5034324;28;20025;-74
2023/05/20 10:59:20;;;;;;;35.58;24.58;;;33.50;99.90;;;;;;5034583;28;20018;-74
2023/05/20 11:01:48;;;;;;;41.83;26.45;;;33.50;99.90;;;;;;5034381;28;20018;-73
2023/05/20 11:04:16;;;;;;;37.00;26.33;;;33.50;99.90;;;;;;5034301;28;20080;-72
2023/05/20 11:06:54;;;;;;;33.45;24.35;;;33.40;99.90;;;;;;5034361;28;20056;-73
2023/05/20 11:09:21;;;;;;;45.92;27.48;;;33.40;99.90;;;;;;5034018;28;20021;-74
2023/05/20 11:11:51;;;;;;;44.97;26.95;;;33.30;99.90;;;;;;5034293;28;20382;-73
2023/05/20 11:14:18;;;;;;;53.97;30.38;;;33.30;99.90;;;;;;5034313;28;20022;-74
2023/05/20 11:17:07;;;;;;;46.35;27.05;;;33.20;99.90;;;;;;5033895;28;20045;-74
2023/05/20 11:19:37;;;;;;;33.75;24.58;;;33.20;99.90;;;;;;5034156;28;20107;-75
2023/05/20 11:22:06;;;;;;;33.13;23.35;;;33.20;99.90;;;;;;5033956;28;20013;-74
2023/05/20 11:24:32;;;;;;;37.63;23.88;;;33.20;99.90;;;;;;5033389;28;20486;-74
2023/05/20 11:27:01;;;;;;;33.40;23.65;;;33.20;99.90;;;;;;5033978;28;20037;-74
2023/05/20 11:29:30;;;;;;;38.53;24.48;;;33.20;99.90;;;;;;5034253;28;20042;-74
2023/05/20 11:31:58;;;;;;;37.35;25.40;;;33.20;99.90;;;;;;5033846;28;20048;-74
2023/05/20 11:34:25;;;;;;;37.10;26.17;;;33.10;99.90;;;;;;5033768;28;20124;-68
2023/05/20 11:36:57;;;;;;;38.53;28.52;;;33.10;99.90;;;;;;5033872;28;20030;-74
2023/05/20 11:39:24;;;;;;;;;;;33.00;99.90;;;;;;5034174;28;20017;-75
2023/05/20 11:41:50;;;;;;;60.08;44.28;;;32.90;99.90;;;;;;5033589;28;19905;-73
2023/05/20 11:44:20;;;;;;;63.47;42.67;;;32.90;99.90;;;;;;5033820;28;20013;-74
2023/05/20 11:46:47;;;;;;;93.80;68.38;;;32.90;99.90;;;;;;5033695;28;20021;-73
2023/05/20 11:49:15;;;;;;;54.10;39.80;;;32.80;99.90;;;;;;5033549;28;20109;-74
2023/05/20 11:51:43;;;;;;;47.90;34.30;;;32.80;99.90;;;;;;5033605;28;20048;-74
2023/05/20 11:54:10;;;;;;;34.72;25.77;;;32.70;99.90;;;;;;5033544;28;20029;-74
2023/05/20 11:56:37;;;;;;;36.80;23.80;;;32.60;99.90;;;;;;5033306;28;20111;-75
2023/05/20 11:59:05;;;;;;;52.70;37.75;;;32.60;99.90;;;;;;5033606;28;20016;-74
2023/05/20 12:01:39;;;;;;;45.97;31.42;;;32.60;99.90;;;;;;5033496;28;20076;-77
2023/05/20 12:04:07;;;;;;;42.03;30.10;;;32.50;99.90;;;;;;5015319;28;20135;-77
2023/05/20 12:06:35;;;;;;;45.63;35.55;;;32.50;99.90;;;;;;5033445;28;20390;-74
2023/05/20 12:09:05;;;;;;;44.60;30.63;;;32.50;99.90;;;;;;5033394;28;20117;-73
2023/05/20 12:11:35;;;;;;;48.72;33.00;;;32.50;99.90;;;;;;5026922;28;20044;-74
2023/05/20 12:14:02;;;;;;;36.05;23.50;;;32.40;99.90;;;;;;5016945;28;20030;-72
2023/05/20 12:16:31;;;;;;;36.63;24.15;;;32.40;99.90;;;;;;5012961;28;20038;-72
2023/05/20 12:18:59;;;;;;;35.00;22.40;;;32.40;99.90;;;;;;5024622;28;20049;-73
2023/05/20 12:21:25;;;;;;;34.40;22.98;;;32.40;99.90;;;;;;5033300;28;20017;-74
2023/05/20 12:23:56;;;;;;;33.80;22.75;;;32.30;99.90;;;;;;5033421;28;20060;-73
2023/05/20 12:26:24;;;;;;;39.70;26.73;;;32.30;99.90;;;;;;5033217;28;20478;-73